Kingston, New Jersey
Current Conditions -  °F | °C
As of 8:59 AM on Wednesday 26 Nov 2014 (Local Time) from KTTN Reporting Station
Moderate Rain Moderate Rain  
Wind Chill: 31°   Ceiling: 900
Heat Index: 38°   Visibility: 1.7mi
Dew Point: 34°   Wind: 9mph
Humidity: 86%   Direction: 50°NE
Pressure: 30.09"   Gusts: NA
Location:  40.38°N, 74.61°W
Report Text: KTTN 261359Z 05008KT 1 3/4SM RA BR BKN009 OVC016 03/01 A3009 RMK AO2 P0001 T00330011
Loading
Personal Weather Stations






























Interactive Weather Map New forecast layout! Learn more

10-Day Weather Forecast

Advertisements
Track Severe Weather on mobile